sensor_id;sensor_type;location;lat;lon;timestamp;temperature;humidity
306;DHT22;137;48.578;9.180;2024-01-15T00:01:22;-1.90;98.20
306;DHT22;137;48.578;9.180;2024-01-15T00:03:48;-1.90;98.20
306;DHT22;137;48.578;9.180;2024-01-15T00:06:15;-1.90;98.20
306;DHT22;137;48.578;9.180;2024-01-15T00:08:42;-1.80;98.20
306;DHT22;137;48.578;9.180;2024-01-15T00:11:08;-1.80;98.20
306;DHT22;137;48.578;9.180;2024-01-15T00:13:35;-1.80;98.20
306;DHT22;137;48.578;9.180;2024-01-15T00:16:04;-1.80;98.20
306;DHT22;137;48.578;9.180;2024-01-15T00:18:31;-1.80;98.20
306;DHT22;137;48.578;9.180;2024-01-15T00:20:57;-1.70;98.20
306;DHT22;137;48.578;9.180;2024-01-15T00:23:24;-1.70;98.20
306;DHT22;137;48.578;9.180;2024-01-15T00:25:51;-1.70;98.20
306;DHT22;137;48.578;9.180;2024-01-15T00:28:18;-1.70;98.20
306;DHT22;137;48.578;9.180;2024-01-15T00:30:44;-1.70;98.20
306;DHT22;137;48.578;9.180;2024-01-15T00:33:12;-1.70;98.20
306;DHT22;137;48.578;9.180;2024-01-15T00:35:40;-1.70;98.20
306;DHT22;137;48.578;9.180;2024-01-15T00:38:07;-1.70;98.20
306;DHT22;137;48.578;9.180;2024-01-15T00:40:34;-1.70;98.20
306;DHT22;137;48.578;9.180;2024-01-15T00:43:00;-1.70;98.20
306;DHT22;137;48.578;9.180;2024-01-15T00:45:27;-1.70;98.20
306;DHT22;137;48.578;9.180;2024-01-15T00:47:54;-1.70;98.20
306;DHT22;137;48.578;9.180;2024-01-15T00:50:23;-1.70;98.20
306;DHT22;137;48.578;9.180;2024-01-15T00:52:50;-1.60;98.20
306;DHT22;137;48.578;9.180;2024-01-15T00:55:16;-1.70;98.20
306;DHT22;137;48.578;9.180;2024-01-15T00:57:43;-1.60;98.20
306;DHT22;137;48.578;9.180;2024-01-15T01:00:11;-1.70;98.20
306;DHT22;137;48.578;9.180;2024-01-15T01:02:38;-1.70;98.20
306;DHT22;137;48.578;9.180;2024-01-15T01:05:04;-1.70;98.20
306;DHT22;137;48.578;9.180;2024-01-15T01:07:33;-1.70;98.20
306;DHT22;137;48.578;9.180;2024-01-15T01:09:59;-1.70;98.20
306;DHT22;137;48.578;9.180;2024-01-15T01:12:26;-1.70;98.20
306;DHT22;137;48.578;9.180;2024-01-15T01:14:53;-1.70;98.20
306;DHT22;137;48.578;9.180;2024-01-15T01:17:19;-1.70;98.20
306;DHT22;137;48.578;9.180;2024-01-15T01:19:46;-1.70;98.20
306;DHT22;137;48.578;9.180;2024-01-15T01:22:13;-1.60;98.20
306;DHT22;137;48.578;9.180;2024-01-15T01:24:41;-1.60;98.20
306;DHT22;137;48.578;9.180;2024-01-15T01:27:08;-1.60;98.20
306;DHT22;137;48.578;9.180;2024-01-15T01:29:35;-1.60;98.20
306;DHT22;137;48.578;9.180;2024-01-15T01:32:01;-1.60;98.20
306;DHT22;137;48.578;9.180;2024-01-15T01:34:28;-1.60;98.20
306;DHT22;137;48.578;9.180;2024-01-15T01:36:55;-1.60;98.20
306;DHT22;137;48.578;9.180;2024-01-15T01:39:22;-1.60;98.20
306;DHT22;137;48.578;9.180;2024-01-15T01:41:50;-1.70;98.20
306;DHT22;137;48.578;9.180;2024-01-15T01:44:17;-1.70;98.20
306;DHT22;137;48.578;9.180;2024-01-15T01:46:44;-1.70;98.20
306;DHT22;137;48.578;9.180;2024-01-15T01:49:10;-1.80;98.20
306;DHT22;137;48.578;9.180;2024-01-15T01:51:38;-1.70;98.20
306;DHT22;137;48.578;9.180;2024-01-15T01:54:05;-1.70;98.20
306;DHT22;137;48.578;9.180;2024-01-15T01:56:33;-1.70;98.20
306;DHT22;137;48.578;9.180;2024-01-15T01:59:02;-1.80;98.20
306;DHT22;137;48.578;9.180;2024-01-15T02:01:30;-1.80;98.20
306;DHT22;137;48.578;9.180;2024-01-15T02:03:57;-1.80;98.20
306;DHT22;137;48.578;9.180;2024-01-15T02:06:24;-1.80;98.20
306;DHT22;137;48.578;9.180;2024-01-15T02:08:51;-1.80;98.20
306;DHT22;137;48.578;9.180;2024-01-15T02:11:18;-1.80;98.20
306;DHT22;137;48.578;9.180;2024-01-15T02:13:45;-1.70;98.20
306;DHT22;137;48.578;9.180;2024-01-15T02:16:13;-1.70;98.20
306;DHT22;137;48.578;9.180;2024-01-15T02:18:41;-1.70;98.20
306;DHT22;137;48.578;9.180;2024-01-15T02:21:08;-1.70;98.20
306;DHT22;137;48.578;9.180;2024-01-15T02:23:36;-1.70;98.20
306;DHT22;137;48.578;9.180;2024-01-15T02:26:03;-1.80;98.20
306;DHT22;137;48.578;9.180;2024-01-15T02:28:30;-1.80;98.20
306;DHT22;137;48.578;9.180;2024-01-15T02:30:59;-1.80;98.20
306;DHT22;137;48.578;9.180;2024-01-15T02:33:25;-1.90;98.20
306;DHT22;137;48.578;9.180;2024-01-15T02:35:52;-1.90;98.20
306;DHT22;137;48.578;9.180;2024-01-15T02:38:19;-1.90;98.20
306;DHT22;137;48.578;9.180;2024-01-15T02:40:47;-1.90;98.20
306;DHT22;137;48.578;9.180;2024-01-15T02:43:14;-1.80;98.20
306;DHT22;137;48.578;9.180;2024-01-15T02:45:40;-1.80;98.20
306;DHT22;137;48.578;9.180;2024-01-15T02:48:07;-1.80;98.20
306;DHT22;137;48.578;9.180;2024-01-15T02:50:34;-1.80;98.20
306;DHT22;137;48.578;9.180;2024-01-15T02:53:01;-1.80;98.20
306;DHT22;137;48.578;9.180;2024-01-15T02:55:27;-1.70;98.20
306;DHT22;137;48.578;9.180;2024-01-15T02:57:57;-1.70;98.20
306;DHT22;137;48.578;9.180;2024-01-15T03:00:23;-1.70;98.20
306;DHT22;137;48.578;9.180;2024-01-15T03:02:51;-1.70;98.20
306;DHT22;137;48.578;9.180;2024-01-15T03:05:17;-1.70;98.20
306;DHT22;137;48.578;9.180;2024-01-15T03:07:45;-1.70;98.20
306;DHT22;137;48.578;9.180;2024-01-15T03:10:12;-1.70;98.20
306;DHT22;137;48.578;9.180;2024-01-15T03:12:39;-1.80;98.20
306;DHT22;137;48.578;9.180;2024-01-15T03:15:07;-1.80;98.20
306;DHT22;137;48.578;9.180;2024-01-15T03:17:34;-1.80;98.20
306;DHT22;137;48.578;9.180;2024-01-15T03:20:01;-1.80;98.20
306;DHT22;137;48.578;9.180;2024-01-15T03:22:28;-1.80;98.20
306;DHT22;137;48.578;9.180;2024-01-15T03:24:55;-1.80;98.20
306;DHT22;137;48.578;9.180;2024-01-15T03:27:22;-1.90;98.20
306;DHT22;137;48.578;9.180;2024-01-15T03:29:48;-1.90;98.20
306;DHT22;137;48.578;9.180;2024-01-15T03:32:16;-1.90;98.20
306;DHT22;137;48.578;9.180;2024-01-15T03:34:45;-1.90;98.20
306;DHT22;137;48.578;9.180;2024-01-15T03:37:12;-1.90;98.20
306;DHT22;137;48.578;9.180;2024-01-15T03:39:39;-1.90;98.20
306;DHT22;137;48.578;9.180;2024-01-15T03:42:06;-1.90;98.20
306;DHT22;137;48.578;9.180;2024-01-15T03:44:33;-2.00;98.20
306;DHT22;137;48.578;9.180;2024-01-15T03:47:00;-2.00;98.20
306;DHT22;137;48.578;9.180;2024-01-15T03:49:28;-1.90;98.20
306;DHT22;137;48.578;9.180;2024-01-15T03:51:55;-1.90;98.20
306;DHT22;137;48.578;9.180;2024-01-15T03:54:21;-1.90;98.20
306;DHT22;137;48.578;9.180;2024-01-15T03:56:48;-1.90;98.20
306;DHT22;137;48.578;9.180;2024-01-15T03:59:15;-1.90;98.20
306;DHT22;137;48.578;9.180;2024-01-15T04:01:48;-1.80;98.20
306;DHT22;137;48.578;9.180;2024-01-15T04:04:15;-1.70;98.20
306;DHT22;137;48.578;9.180;2024-01-15T04:06:43;-1.60;98.20
306;DHT22;137;48.578;9.180;2024-01-15T04:09:10;-1.50;98.20
306;DHT22;137;48.578;9.180;2024-01-15T04:11:36;-1.40;98.20
306;DHT22;137;48.578;9.180;2024-01-15T04:14:03;-1.40;98.20
306;DHT22;137;48.578;9.180;2024-01-15T04:16:30;-1.30;98.20
306;DHT22;137;48.578;9.180;2024-01-15T04:18:56;-1.30;98.20
306;DHT22;137;48.578;9.180;2024-01-15T04:21:23;-1.20;98.20
306;DHT22;137;48.578;9.180;2024-01-15T04:23:51;-1.20;98.20
306;DHT22;137;48.578;9.180;2024-01-15T04:26:18;-1.20;98.20
306;DHT22;137;48.578;9.180;2024-01-15T04:28:45;-1.20;98.20
306;DHT22;137;48.578;9.180;2024-01-15T04:31:21;-1.20;98.20
306;DHT22;137;48.578;9.180;2024-01-15T04:33:47;-1.20;98.20
306;DHT22;137;48.578;9.180;2024-01-15T04:36:14;-1.20;98.20
306;DHT22;137;48.578;9.180;2024-01-15T04:38:41;-1.20;98.20
306;DHT22;137;48.578;9.180;2024-01-15T04:41:11;-1.20;98.20
306;DHT22;137;48.578;9.180;2024-01-15T04:43:38;-1.20;98.20
306;DHT22;137;48.578;9.180;2024-01-15T04:46:05;-1.20;98.20
306;DHT22;137;48.578;9.180;2024-01-15T04:48:32;-1.10;98.20
306;DHT22;137;48.578;9.180;2024-01-15T04:50:58;-1.20;98.20
306;DHT22;137;48.578;9.180;2024-01-15T04:53:25;-1.20;98.20
306;DHT22;137;48.578;9.180;2024-01-15T04:55:52;-1.20;98.20
306;DHT22;137;48.578;9.180;2024-01-15T04:58:19;-1.20;98.20
306;DHT22;137;48.578;9.180;2024-01-15T05:00:46;-1.20;98.20
306;DHT22;137;48.578;9.180;2024-01-15T05:03:12;-1.20;98.20
306;DHT22;137;48.578;9.180;2024-01-15T05:05:39;-1.20;98.20
306;DHT22;137;48.578;9.180;2024-01-15T05:08:06;-1.20;98.20
306;DHT22;137;48.578;9.180;2024-01-15T05:10:32;-1.20;98.20
306;DHT22;137;48.578;9.180;2024-01-15T05:12:59;-1.20;98.20
306;DHT22;137;48.578;9.180;2024-01-15T05:15:27;-1.20;98.20
306;DHT22;137;48.578;9.180;2024-01-15T05:17:55;-1.20;98.20
306;DHT22;137;48.578;9.180;2024-01-15T05:20:22;-1.20;98.20
306;DHT22;137;48.578;9.180;2024-01-15T05:22:48;-1.20;98.20
306;DHT22;137;48.578;9.180;2024-01-15T05:25:15;-1.20;98.20
306;DHT22;137;48.578;9.180;2024-01-15T05:27:42;-1.20;98.20
306;DHT22;137;48.578;9.180;2024-01-15T05:30:09;-1.20;98.20
306;DHT22;137;48.578;9.180;2024-01-15T05:32:37;-1.20;98.20
306;DHT22;137;48.578;9.180;2024-01-15T05:35:05;-1.20;98.20
306;DHT22;137;48.578;9.180;2024-01-15T05:39:57;-1.20;98.20
306;DHT22;137;48.578;9.180;2024-01-15T05:42:24;-1.10;98.20
306;DHT22;137;48.578;9.180;2024-01-15T05:44:50;-1.10;98.20
306;DHT22;137;48.578;9.180;2024-01-15T05:47:17;-1.10;98.20
306;DHT22;137;48.578;9.180;2024-01-15T05:49:45;-1.10;98.20
306;DHT22;137;48.578;9.180;2024-01-15T05:52:12;-1.10;98.20
306;DHT22;137;48.578;9.180;2024-01-15T05:54:38;-1.10;98.20
306;DHT22;137;48.578;9.180;2024-01-15T05:57:05;-1.10;98.20
306;DHT22;137;48.578;9.180;2024-01-15T05:59:32;-1.10;98.20
306;DHT22;137;48.578;9.180;2024-01-15T06:02:01;-1.10;98.20
306;DHT22;137;48.578;9.180;2024-01-15T06:04:28;-1.10;98.20
306;DHT22;137;48.578;9.180;2024-01-15T06:06:56;-1.10;98.20
306;DHT22;137;48.578;9.180;2024-01-15T06:09:23;-1.10;98.20
306;DHT22;137;48.578;9.180;2024-01-15T06:11:50;-1.10;98.20
306;DHT22;137;48.578;9.180;2024-01-15T06:14:17;-1.10;98.20
306;DHT22;137;48.578;9.180;2024-01-15T06:16:43;-1.10;98.20
306;DHT22;137;48.578;9.180;2024-01-15T06:19:10;-1.10;98.20
306;DHT22;137;48.578;9.180;2024-01-15T06:21:37;-1.10;98.20
306;DHT22;137;48.578;9.180;2024-01-15T06:24:05;-1.10;98.20
306;DHT22;137;48.578;9.180;2024-01-15T06:26:32;-1.10;98.20
306;DHT22;137;48.578;9.180;2024-01-15T06:28:59;-1.10;98.20
306;DHT22;137;48.578;9.180;2024-01-15T06:31:26;-1.10;98.20
306;DHT22;137;48.578;9.180;2024-01-15T06:33:52;-1.10;98.20
306;DHT22;137;48.578;9.180;2024-01-15T06:36:19;-1.10;98.20
306;DHT22;137;48.578;9.180;2024-01-15T06:38:46;-1.10;98.20
306;DHT22;137;48.578;9.180;2024-01-15T06:41:14;-1.10;98.20
306;DHT22;137;48.578;9.180;2024-01-15T06:43:41;-1.10;98.20
306;DHT22;137;48.578;9.180;2024-01-15T06:46:07;-1.10;98.20
306;DHT22;137;48.578;9.180;2024-01-15T06:48:34;-1.10;98.20
306;DHT22;137;48.578;9.180;2024-01-15T06:51:01;-1.10;98.20
306;DHT22;137;48.578;9.180;2024-01-15T06:53:28;-1.10;98.20
306;DHT22;137;48.578;9.180;2024-01-15T06:55:54;-1.10;98.20
306;DHT22;137;48.578;9.180;2024-01-15T06:58:22;-1.10;98.20
306;DHT22;137;48.578;9.180;2024-01-15T07:00:49;-1.00;98.20
306;DHT22;137;48.578;9.180;2024-01-15T07:03:16;-1.00;98.20
306;DHT22;137;48.578;9.180;2024-01-15T07:05:43;-1.00;98.20
306;DHT22;137;48.578;9.180;2024-01-15T07:08:09;-1.00;98.20
306;DHT22;137;48.578;9.180;2024-01-15T07:10:36;-1.00;98.20
306;DHT22;137;48.578;9.180;2024-01-15T07:13:03;-0.90;98.20
306;DHT22;137;48.578;9.180;2024-01-15T07:15:32;-0.90;98.20
306;DHT22;137;48.578;9.180;2024-01-15T07:17:59;-0.90;98.20
306;DHT22;137;48.578;9.180;2024-01-15T07:20:25;-0.90;98.20
306;DHT22;137;48.578;9.180;2024-01-15T07:22:52;-1.00;98.20
306;DHT22;137;48.578;9.180;2024-01-15T07:25:19;-1.00;98.20
306;DHT22;137;48.578;9.180;2024-01-15T07:27:46;-1.00;98.20
306;DHT22;137;48.578;9.180;2024-01-15T07:30:13;-0.90;98.20
306;DHT22;137;48.578;9.180;2024-01-15T07:32:41;-0.90;98.20
306;DHT22;137;48.578;9.180;2024-01-15T07:35:08;-0.90;98.20
306;DHT22;137;48.578;9.180;2024-01-15T07:37:36;-0.90;98.20
306;DHT22;137;48.578;9.180;2024-01-15T07:40:03;-0.90;98.20
306;DHT22;137;48.578;9.180;2024-01-15T07:42:32;-0.90;98.20
306;DHT22;137;48.578;9.180;2024-01-15T07:45:00;-0.80;98.20
306;DHT22;137;48.578;9.180;2024-01-15T07:47:27;-0.80;98.20
306;DHT22;137;48.578;9.180;2024-01-15T07:49:55;-0.80;98.20
306;DHT22;137;48.578;9.180;2024-01-15T07:52:22;-0.70;98.20
306;DHT22;137;48.578;9.180;2024-01-15T07:54:48;-0.70;98.20
306;DHT22;137;48.578;9.180;2024-01-15T07:57:15;-0.70;98.20
306;DHT22;137;48.578;9.180;2024-01-15T07:59:42;-0.70;98.20
306;DHT22;137;48.578;9.180;2024-01-15T08:02:09;-0.60;98.20
306;DHT22;137;48.578;9.180;2024-01-15T08:04:36;-0.60;98.20
306;DHT22;137;48.578;9.180;2024-01-15T08:07:05;-0.60;98.20
306;DHT22;137;48.578;9.180;2024-01-15T08:09:32;-0.50;98.20
306;DHT22;137;48.578;9.180;2024-01-15T08:11:59;-0.50;98.20
306;DHT22;137;48.578;9.180;2024-01-15T08:14:26;-0.50;98.20
306;DHT22;137;48.578;9.180;2024-01-15T08:16:53;-0.40;98.20
306;DHT22;137;48.578;9.180;2024-01-15T08:19:19;-0.40;98.20
306;DHT22;137;48.578;9.180;2024-01-15T08:21:46;-0.40;98.20
306;DHT22;137;48.578;9.180;2024-01-15T08:24:15;-0.40;98.20
306;DHT22;137;48.578;9.180;2024-01-15T08:26:42;-0.30;98.20
306;DHT22;137;48.578;9.180;2024-01-15T08:29:09;-0.30;98.20
306;DHT22;137;48.578;9.180;2024-01-15T08:31:35;-0.30;98.20
306;DHT22;137;48.578;9.180;2024-01-15T08:34:02;-0.30;98.20
306;DHT22;137;48.578;9.180;2024-01-15T08:36:30;-0.20;98.20
306;DHT22;137;48.578;9.180;2024-01-15T08:38:57;-0.20;98.20
306;DHT22;137;48.578;9.180;2024-01-15T08:41:25;-0.20;98.20
306;DHT22;137;48.578;9.180;2024-01-15T08:43:52;-0.10;98.20
306;DHT22;137;48.578;9.180;2024-01-15T08:46:18;-0.10;98.20
306;DHT22;137;48.578;9.180;2024-01-15T08:48:46;0.00;98.20
306;DHT22;137;48.578;9.180;2024-01-15T08:51:12;0.00;98.20
306;DHT22;137;48.578;9.180;2024-01-15T08:53:39;0.10;98.20
306;DHT22;137;48.578;9.180;2024-01-15T08:56:06;0.10;98.20
306;DHT22;137;48.578;9.180;2024-01-15T08:58:35;0.20;98.20
306;DHT22;137;48.578;9.180;2024-01-15T09:01:02;0.20;98.20
306;DHT22;137;48.578;9.180;2024-01-15T09:03:28;0.30;98.20
306;DHT22;137;48.578;9.180;2024-01-15T09:05:55;0.40;98.20
306;DHT22;137;48.578;9.180;2024-01-15T09:08:22;0.40;98.20
306;DHT22;137;48.578;9.180;2024-01-15T09:10:49;0.50;98.20
306;DHT22;137;48.578;9.180;2024-01-15T09:13:15;0.60;98.20
306;DHT22;137;48.578;9.180;2024-01-15T09:15:43;0.60;98.20
306;DHT22;137;48.578;9.180;2024-01-15T09:18:10;0.60;98.20
306;DHT22;137;48.578;9.180;2024-01-15T09:20:37;0.60;98.20
306;DHT22;137;48.578;9.180;2024-01-15T09:23:04;0.60;98.20
306;DHT22;137;48.578;9.180;2024-01-15T09:25:31;0.60;98.20
306;DHT22;137;48.578;9.180;2024-01-15T09:27:57;0.60;98.20
306;DHT22;137;48.578;9.180;2024-01-15T09:30:24;0.60;98.20
306;DHT22;137;48.578;9.180;2024-01-15T09:32:52;0.70;98.20
306;DHT22;137;48.578;9.180;2024-01-15T09:35:19;0.70;98.20
306;DHT22;137;48.578;9.180;2024-01-15T09:37:46;0.70;98.20
306;DHT22;137;48.578;9.180;2024-01-15T09:40:13;0.70;98.20
306;DHT22;137;48.578;9.180;2024-01-15T09:42:41;0.70;98.20
306;DHT22;137;48.578;9.180;2024-01-15T09:45:08;0.80;98.20
306;DHT22;137;48.578;9.180;2024-01-15T09:47:35;0.80;98.20
306;DHT22;137;48.578;9.180;2024-01-15T09:50:05;0.90;98.20
306;DHT22;137;48.578;9.180;2024-01-15T09:52:32;0.90;98.20
306;DHT22;137;48.578;9.180;2024-01-15T09:55:00;1.00;98.20
306;DHT22;137;48.578;9.180;2024-01-15T09:57:29;1.10;98.20
306;DHT22;137;48.578;9.180;2024-01-15T09:59:57;1.20;98.20
306;DHT22;137;48.578;9.180;2024-01-15T10:02:25;1.30;98.20
306;DHT22;137;48.578;9.180;2024-01-15T10:04:52;1.30;98.20
306;DHT22;137;48.578;9.180;2024-01-15T10:07:21;1.30;98.20
306;DHT22;137;48.578;9.180;2024-01-15T10:09:49;1.30;98.20
306;DHT22;137;48.578;9.180;2024-01-15T10:12:16;1.30;98.20
306;DHT22;137;48.578;9.180;2024-01-15T10:14:43;1.30;98.20
306;DHT22;137;48.578;9.180;2024-01-15T10:17:13;1.30;98.20
306;DHT22;137;48.578;9.180;2024-01-15T10:19:41;1.30;98.20
306;DHT22;137;48.578;9.180;2024-01-15T10:22:08;1.30;98.20
306;DHT22;137;48.578;9.180;2024-01-15T10:24:37;1.30;98.20
306;DHT22;137;48.578;9.180;2024-01-15T10:27:07;1.30;98.20
306;DHT22;137;48.578;9.180;2024-01-15T10:29:34;1.30;98.20
306;DHT22;137;48.578;9.180;2024-01-15T10:32:02;1.30;98.20
306;DHT22;137;48.578;9.180;2024-01-15T10:34:30;1.30;98.20
306;DHT22;137;48.578;9.180;2024-01-15T10:36:57;1.40;98.20
306;DHT22;137;48.578;9.180;2024-01-15T10:39:24;1.40;98.20
306;DHT22;137;48.578;9.180;2024-01-15T10:41:52;1.40;98.20
306;DHT22;137;48.578;9.180;2024-01-15T10:44:19;1.40;98.20
306;DHT22;137;48.578;9.180;2024-01-15T10:46:46;1.50;98.20
306;DHT22;137;48.578;9.180;2024-01-15T10:49:14;1.50;98.20
306;DHT22;137;48.578;9.180;2024-01-15T10:51:41;1.50;98.20
306;DHT22;137;48.578;9.180;2024-01-15T10:54:09;1.60;98.20
306;DHT22;137;48.578;9.180;2024-01-15T10:56:37;1.60;98.20
306;DHT22;137;48.578;9.180;2024-01-15T10:59:05;1.70;98.20
306;DHT22;137;48.578;9.180;2024-01-15T11:01:33;1.70;98.20
306;DHT22;137;48.578;9.180;2024-01-15T11:04:00;1.70;98.20
306;DHT22;137;48.578;9.180;2024-01-15T11:06:28;1.70;98.20
306;DHT22;137;48.578;9.180;2024-01-15T11:08:55;1.80;98.20
306;DHT22;137;48.578;9.180;2024-01-15T11:11:22;1.80;98.20
306;DHT22;137;48.578;9.180;2024-01-15T11:13:49;1.70;98.20
306;DHT22;137;48.578;9.180;2024-01-15T11:16:19;1.70;98.20
306;DHT22;137;48.578;9.180;2024-01-15T11:19:01;1.60;98.20
306;DHT22;137;48.578;9.180;2024-01-15T11:21:28;1.60;98.20
306;DHT22;137;48.578;9.180;2024-01-15T11:23:57;1.60;98.20
306;DHT22;137;48.578;9.180;2024-01-15T11:26:31;1.50;98.20
306;DHT22;137;48.578;9.180;2024-01-15T11:28:59;1.50;98.20
306;DHT22;137;48.578;9.180;2024-01-15T11:31:28;1.40;98.20
306;DHT22;137;48.578;9.180;2024-01-15T11:33:55;1.40;98.20
306;DHT22;137;48.578;9.180;2024-01-15T11:37:00;1.40;98.20
306;DHT22;137;48.578;9.180;2024-01-15T11:39:39;1.40;98.20
306;DHT22;137;48.578;9.180;2024-01-15T11:42:09;1.50;98.20
306;DHT22;137;48.578;9.180;2024-01-15T11:44:36;1.40;98.20
306;DHT22;137;48.578;9.180;2024-01-15T11:47:06;1.40;98.20
306;DHT22;137;48.578;9.180;2024-01-15T11:52:36;1.40;98.20
306;DHT22;137;48.578;9.180;2024-01-15T11:55:16;1.40;98.20
306;DHT22;137;48.578;9.180;2024-01-15T11:57:46;1.30;98.20
306;DHT22;137;48.578;9.180;2024-01-15T12:00:16;1.30;98.20
306;DHT22;137;48.578;9.180;2024-01-15T12:02:45;1.30;98.20
306;DHT22;137;48.578;9.180;2024-01-15T12:05:13;1.30;98.20
306;DHT22;137;48.578;9.180;2024-01-15T12:07:40;1.30;98.20
306;DHT22;137;48.578;9.180;2024-01-15T12:10:10;1.30;98.20
306;DHT22;137;48.578;9.180;2024-01-15T12:12:50;1.30;98.20
306;DHT22;137;48.578;9.180;2024-01-15T12:15:18;1.30;98.20
306;DHT22;137;48.578;9.180;2024-01-15T12:17:46;1.30;98.20
306;DHT22;137;48.578;9.180;2024-01-15T12:20:14;1.20;98.20
306;DHT22;137;48.578;9.180;2024-01-15T12:22:42;1.30;98.20
306;DHT22;137;48.578;9.180;2024-01-15T12:25:09;1.30;98.20
306;DHT22;137;48.578;9.180;2024-01-15T12:27:36;1.30;98.20
306;DHT22;137;48.578;9.180;2024-01-15T12:30:04;1.20;98.20
306;DHT22;137;48.578;9.180;2024-01-15T12:32:31;1.30;98.20
306;DHT22;137;48.578;9.180;2024-01-15T12:35:00;1.30;98.20
306;DHT22;137;48.578;9.180;2024-01-15T12:37:27;1.30;98.20
306;DHT22;137;48.578;9.180;2024-01-15T12:39:53;1.30;98.20
306;DHT22;137;48.578;9.180;2024-01-15T12:42:21;1.20;98.20
306;DHT22;137;48.578;9.180;2024-01-15T12:44:48;1.10;98.20
306;DHT22;137;48.578;9.180;2024-01-15T12:47:15;1.10;98.20
306;DHT22;137;48.578;9.180;2024-01-15T12:49:46;1.00;98.20
306;DHT22;137;48.578;9.180;2024-01-15T12:52:18;1.00;98.20
306;DHT22;137;48.578;9.180;2024-01-15T12:54:45;0.80;98.20
306;DHT22;137;48.578;9.180;2024-01-15T12:57:12;0.80;98.20
306;DHT22;137;48.578;9.180;2024-01-15T12:59:38;0.80;98.20
306;DHT22;137;48.578;9.180;2024-01-15T13:02:05;0.80;98.20
306;DHT22;137;48.578;9.180;2024-01-15T13:04:32;0.80;98.20
306;DHT22;137;48.578;9.180;2024-01-15T13:06:59;0.90;98.20
306;DHT22;137;48.578;9.180;2024-01-15T13:09:27;0.80;98.20
306;DHT22;137;48.578;9.180;2024-01-15T13:11:55;0.80;98.20
306;DHT22;137;48.578;9.180;2024-01-15T13:14:22;0.80;98.20
306;DHT22;137;48.578;9.180;2024-01-15T13:16:48;0.70;98.20
306;DHT22;137;48.578;9.180;2024-01-15T13:19:15;0.70;98.20
306;DHT22;137;48.578;9.180;2024-01-15T13:21:42;0.80;98.20
306;DHT22;137;48.578;9.180;2024-01-15T13:24:09;0.80;98.20
306;DHT22;137;48.578;9.180;2024-01-15T13:26:37;0.80;98.20
306;DHT22;137;48.578;9.180;2024-01-15T13:29:04;0.80;98.20
306;DHT22;137;48.578;9.180;2024-01-15T13:31:31;0.80;98.20
306;DHT22;137;48.578;9.180;2024-01-15T13:33:59;0.80;98.20
306;DHT22;137;48.578;9.180;2024-01-15T13:36:26;0.70;98.20
306;DHT22;137;48.578;9.180;2024-01-15T13:38:53;0.60;98.20
306;DHT22;137;48.578;9.180;2024-01-15T13:41:20;0.60;98.20
306;DHT22;137;48.578;9.180;2024-01-15T13:43:54;0.60;98.20
306;DHT22;137;48.578;9.180;2024-01-15T13:46:24;0.70;98.20
306;DHT22;137;48.578;9.180;2024-01-15T13:48:52;0.70;98.20
306;DHT22;137;48.578;9.180;2024-01-15T13:51:18;0.80;98.20
306;DHT22;137;48.578;9.180;2024-01-15T13:53:45;0.80;98.20
306;DHT22;137;48.578;9.180;2024-01-15T13:56:12;0.80;98.20
306;DHT22;137;48.578;9.180;2024-01-15T13:58:38;0.80;98.20
306;DHT22;137;48.578;9.180;2024-01-15T14:01:06;0.80;98.20
306;DHT22;137;48.578;9.180;2024-01-15T14:03:33;0.80;98.20
306;DHT22;137;48.578;9.180;2024-01-15T14:06:00;0.90;98.20
306;DHT22;137;48.578;9.180;2024-01-15T14:08:28;0.90;98.20
306;DHT22;137;48.578;9.180;2024-01-15T14:10:55;0.90;98.20
306;DHT22;137;48.578;9.180;2024-01-15T14:13:23;0.90;98.20
306;DHT22;137;48.578;9.180;2024-01-15T14:15:49;0.90;98.20
306;DHT22;137;48.578;9.180;2024-01-15T14:18:17;0.90;98.20
306;DHT22;137;48.578;9.180;2024-01-15T14:20:44;0.80;98.20
306;DHT22;137;48.578;9.180;2024-01-15T14:23:12;0.80;98.20
306;DHT22;137;48.578;9.180;2024-01-15T14:25:39;0.80;98.20
306;DHT22;137;48.578;9.180;2024-01-15T14:28:06;0.70;98.20
306;DHT22;137;48.578;9.180;2024-01-15T14:30:33;0.70;98.20
306;DHT22;137;48.578;9.180;2024-01-15T14:32:59;0.80;98.20
306;DHT22;137;48.578;9.180;2024-01-15T14:35:27;0.80;98.20
306;DHT22;137;48.578;9.180;2024-01-15T14:37:54;0.80;98.20
306;DHT22;137;48.578;9.180;2024-01-15T14:40:23;0.80;98.20
306;DHT22;137;48.578;9.180;2024-01-15T14:42:49;0.80;98.20
306;DHT22;137;48.578;9.180;2024-01-15T14:45:16;0.70;98.20
306;DHT22;137;48.578;9.180;2024-01-15T14:47:43;0.70;98.20
306;DHT22;137;48.578;9.180;2024-01-15T14:50:10;0.70;98.20
306;DHT22;137;48.578;9.180;2024-01-15T14:52:39;0.60;98.20
306;DHT22;137;48.578;9.180;2024-01-15T14:55:07;0.60;98.20
306;DHT22;137;48.578;9.180;2024-01-15T14:57:35;0.60;98.20
306;DHT22;137;48.578;9.180;2024-01-15T15:00:03;0.50;98.20
306;DHT22;137;48.578;9.180;2024-01-15T15:02:32;0.40;98.20
306;DHT22;137;48.578;9.180;2024-01-15T15:05:00;0.40;98.20
306;DHT22;137;48.578;9.180;2024-01-15T15:07:26;0.30;98.20
306;DHT22;137;48.578;9.180;2024-01-15T15:09:54;0.30;98.20
306;DHT22;137;48.578;9.180;2024-01-15T15:12:21;0.30;98.20
306;DHT22;137;48.578;9.180;2024-01-15T15:14:48;0.20;98.20
306;DHT22;137;48.578;9.180;2024-01-15T15:17:15;0.20;98.20
306;DHT22;137;48.578;9.180;2024-01-15T15:19:41;0.20;98.20
306;DHT22;137;48.578;9.180;2024-01-15T15:22:08;0.20;98.20
306;DHT22;137;48.578;9.180;2024-01-15T15:24:36;0.30;98.20
306;DHT22;137;48.578;9.180;2024-01-15T15:27:05;0.30;98.20
306;DHT22;137;48.578;9.180;2024-01-15T15:29:32;0.30;98.20
306;DHT22;137;48.578;9.180;2024-01-15T15:32:00;0.20;98.20
306;DHT22;137;48.578;9.180;2024-01-15T15:34:27;0.10;98.20
306;DHT22;137;48.578;9.180;2024-01-15T15:36:54;0.00;98.20
306;DHT22;137;48.578;9.180;2024-01-15T15:39:20;-0.10;98.20
306;DHT22;137;48.578;9.180;2024-01-15T15:41:47;-0.10;98.20
306;DHT22;137;48.578;9.180;2024-01-15T15:44:16;-0.20;98.20
306;DHT22;137;48.578;9.180;2024-01-15T15:46:43;-0.30;98.20
306;DHT22;137;48.578;9.180;2024-01-15T15:49:10;-0.30;98.20
306;DHT22;137;48.578;9.180;2024-01-15T15:51:36;-0.40;98.20
306;DHT22;137;48.578;9.180;2024-01-15T15:54:04;-0.30;98.20
306;DHT22;137;48.578;9.180;2024-01-15T15:56:31;-0.40;98.20
306;DHT22;137;48.578;9.180;2024-01-15T15:58:59;-0.40;98.20
306;DHT22;137;48.578;9.180;2024-01-15T16:01:28;-0.40;98.20
306;DHT22;137;48.578;9.180;2024-01-15T16:03:55;-0.40;98.20
306;DHT22;137;48.578;9.180;2024-01-15T16:06:22;-0.40;98.20
306;DHT22;137;48.578;9.180;2024-01-15T16:08:48;-0.40;98.20
306;DHT22;137;48.578;9.180;2024-01-15T16:11:16;-0.40;98.20
306;DHT22;137;48.578;9.180;2024-01-15T16:13:43;-0.40;98.20
306;DHT22;137;48.578;9.180;2024-01-15T16:16:09;-0.40;98.20
306;DHT22;137;48.578;9.180;2024-01-15T16:18:37;-0.40;98.20
306;DHT22;137;48.578;9.180;2024-01-15T16:21:04;-0.40;98.20
306;DHT22;137;48.578;9.180;2024-01-15T16:23:31;-0.50;98.20
306;DHT22;137;48.578;9.180;2024-01-15T16:25:58;-0.50;98.20
306;DHT22;137;48.578;9.180;2024-01-15T16:28:25;-0.50;98.20
306;DHT22;137;48.578;9.180;2024-01-15T16:30:51;-0.60;98.20
306;DHT22;137;48.578;9.180;2024-01-15T16:33:18;-0.60;98.20
306;DHT22;137;48.578;9.180;2024-01-15T16:35:47;-0.60;98.20
306;DHT22;137;48.578;9.180;2024-01-15T16:38:13;-0.70;98.20
306;DHT22;137;48.578;9.180;2024-01-15T16:40:40;-0.70;98.20
306;DHT22;137;48.578;9.180;2024-01-15T16:43:07;-0.70;98.20
306;DHT22;137;48.578;9.180;2024-01-15T16:45:34;-0.70;98.20
306;DHT22;137;48.578;9.180;2024-01-15T16:48:01;-0.70;98.20